Time;durP1;ratioP1;P1;durP2;ratioP2;P2;SDS_P1;SDS_P2;PMS_P1;PMS_P2;Temp;Humidity;BMP_temperature;BMP_pressure;BME280_temperature;BME280_humidity;BME280_pressure;Samples;Min_cycle;Max_cycle;Signal;HPM_P1;HPM_P2
2022/10/25 00:01:15;;;;;;;;;;;;;;;1.15;70.57;99931.66;5085762;28;19928;-64
2022/10/25 00:03:41;;;;;;;;;;;;;;;1.13;71.33;99931.03;5086643;28;19928;-64
2022/10/25 00:06:07;;;;;;;;;;;;;;;1.09;71.52;99936.00;5088827;28;19935;-65
2022/10/25 00:08:33;;;;;;;;;;;;;;;1.05;71.48;99932.09;5088265;28;19967;-64
2022/10/25 00:10:58;;;;;;;;;;;;;;;1.04;71.84;99940.34;5089126;28;20021;-64
2022/10/25 00:13:24;;;;;;;;;;;;;;;0.98;71.47;99933.94;5072986;28;20150;-64
2022/10/25 00:15:51;;;;;;;;;;;;;;;0.91;72.26;99931.25;5084567;28;19927;-65
2022/10/25 00:18:17;;;;;;;;;;;;;;;0.87;72.30;99932.69;5067636;28;19932;-65
2022/10/25 00:20:45;;;;;;;;;;;;;;;0.79;72.55;99936.44;5087593;28;20114;-65
2022/10/25 00:23:11;;;;;;;;;;;;;;;0.75;72.86;99947.81;5089207;28;20424;-65
2022/10/25 00:25:37;;;;;;;;;;;;;;;0.73;73.00;99948.03;5085085;28;19928;-65
2022/10/25 00:28:03;;;;;;;;;;;;;;;0.71;73.17;99950.09;5070116;28;19985;-64
2022/10/25 00:30:29;;;;;;;;;;;;;;;0.68;73.70;99945.13;5088891;28;19952;-65
2022/10/25 00:32:56;;;;;;;;;;;;;;;0.63;73.87;99950.28;5084908;28;19928;-64
2022/10/25 00:35:22;;;;;;;;;;;;;;;0.57;73.85;99954.63;5087151;28;20296;-64
2022/10/25 00:37:48;;;;;;;;;;;;;;;0.60;74.22;99953.41;5085207;28;19928;-64
2022/10/25 00:40:14;;;;;;;;;;;;;;;0.59;73.88;99943.69;5083757;28;19928;-64
2022/10/25 00:42:39;;;;;;;;;;;;;;;0.55;74.01;99952.16;5085893;28;20462;-64
2022/10/25 00:45:14;;;;;;;;;;;;;;;0.53;74.38;99962.28;5087667;28;19928;-65
2022/10/25 00:47:43;;;;;;;;;;;;;;;0.49;74.41;99954.84;5087272;28;19963;-69
2022/10/25 00:50:33;;;;;;;;;;;;;;;0.48;74.60;99959.38;5086716;28;20232;-64
2022/10/25 00:53:03;;;;;;;;;;;;;;;0.48;74.75;99961.25;5078407;28;19928;-64
2022/10/25 00:55:29;;;;;;;;;;;;;;;0.45;74.64;99967.03;5070701;28;19932;-65
2022/10/25 00:57:58;;;;;;;;;;;;;;;0.43;74.94;99972.63;5074410;28;19927;-64
2022/10/25 01:00:24;;;;;;;;;;;;;;;0.44;74.84;99968.06;5086904;28;20015;-64
2022/10/25 01:02:50;;;;;;;;;;;;;;;0.40;74.77;99971.16;5084721;28;20023;-64
2022/10/25 01:05:16;;;;;;;;;;;;;;;0.35;75.02;99970.09;5084954;28;19981;-64
2022/10/25 01:07:41;;;;;;;;;;;;;;;0.32;75.25;99983.97;5088404;28;19927;-65
2022/10/25 01:10:09;;;;;;;;;;;;;;;0.27;75.38;99985.41;5085194;28;19928;-65
2022/10/25 01:12:34;;;;;;;;;;;;;;;0.25;75.66;99976.72;5086350;28;19928;-65
2022/10/25 01:15:01;;;;;;;;;;;;;;;0.27;75.35;99980.03;5084193;28;19939;-65
2022/10/25 01:17:31;;;;;;;;;;;;;;;0.29;75.38;99979.81;5088089;28;20420;-65
2022/10/25 01:20:07;;;;;;;;;;;;;;;0.20;75.33;99978.34;5085160;28;19958;-64
2022/10/25 01:22:38;;;;;;;;;;;;;;;0.17;75.52;99984.16;5085447;28;19927;-64
2022/10/25 01:25:27;;;;;;;;;;;;;;;0.12;75.70;99985.56;5084606;28;19974;-65
2022/10/25 01:28:05;;;;;;;;;;;;;;;0.08;76.03;99994.22;5073914;28;19981;-64
2022/10/25 01:30:45;;;;;;;;;;;;;;;0.04;76.47;99988.44;5084904;28;20300;-65
2022/10/25 01:33:16;;;;;;;;;;;;;;;0.02;76.42;99989.66;5085131;28;19973;-65
2022/10/25 01:35:48;;;;;;;;;;;;;;;-0.02;76.58;99989.22;5085452;28;19928;-66
2022/10/25 01:38:27;;;;;;;;;;;;;;;-0.04;76.97;99993.97;5087566;28;19989;-65
2022/10/25 01:40:58;;;;;;;;;;;;;;;-0.06;76.92;99990.66;5085016;28;19928;-65
2022/10/25 01:43:27;;;;;;;;;;;;;;;-0.04;77.02;100000.19;5086373;28;20064;-65
2022/10/25 01:45:59;;;;;;;;;;;;;;;-0.09;77.24;99994.56;5088685;28;19928;-66
2022/10/25 01:48:28;;;;;;;;;;;;;;;-0.10;77.46;100000.16;5086362;28;20406;-65
2022/10/25 01:50:54;;;;;;;;;;;;;;;-0.06;77.42;99998.72;5086524;28;20387;-65
2022/10/25 01:53:19;;;;;;;;;;;;;;;0.00;77.48;99997.94;5085372;28;19939;-66
2022/10/25 01:55:48;;;;;;;;;;;;;;;0.02;77.25;99998.56;5087881;28;19934;-66
2022/10/25 01:58:23;;;;;;;;;;;;;;;0.03;77.18;99996.69;5106518;28;19928;-64
2022/10/25 02:00:53;;;;;;;;;;;;;;;-0.01;77.10;99998.94;5091175;28;20125;-64
2022/10/25 02:03:26;;;;;;;;;;;;;;;-0.03;76.97;99998.31;5087275;28;19928;-64
2022/10/25 02:05:58;;;;;;;;;;;;;;;-0.10;77.07;100000.97;5085871;28;19973;-65
2022/10/25 02:08:30;;;;;;;;;;;;;;;-0.17;77.18;99995.56;5085660;28;20407;-64
2022/10/25 02:11:00;;;;;;;;;;;;;;;-0.34;77.19;99970.88;5084477;28;19928;-64
2022/10/25 02:13:27;;;;;;;;;;;;;;;-0.21;77.14;99998.88;5084567;28;19928;-64
2022/10/25 02:16:14;;;;;;;;;;;;;;;-0.24;77.22;100008.16;5084038;28;19928;-64
2022/10/25 02:18:45;;;;;;;;;;;;;;;-0.25;77.16;100001.13;5085486;28;20379;-65
2022/10/25 02:21:11;;;;;;;;;;;;;;;-0.21;77.03;100007.75;5055632;28;19928;-64
2022/10/25 02:23:38;;;;;;;;;;;;;;;-0.22;77.00;100005.28;5085888;28;19928;-65
2022/10/25 02:26:05;;;;;;;;;;;;;;;-0.27;77.11;100003.19;5085640;28;19927;-65
2022/10/25 02:28:31;;;;;;;;;;;;;;;-0.24;77.07;100010.00;5083992;28;20365;-65
2022/10/25 02:30:58;;;;;;;;;;;;;;;-0.22;76.88;100016.84;5083269;28;19973;-64
2022/10/25 02:33:24;;;;;;;;;;;;;;;-0.22;76.79;100016.84;5086158;28;19928;-64
2022/10/25 02:36:12;;;;;;;;;;;;;;;-0.24;76.79;100013.53;5084774;28;19928;-65
2022/10/25 02:38:38;;;;;;;;;;;;;;;-0.29;76.80;100011.44;5084254;28;20318;-64
2022/10/25 02:41:04;;;;;;;;;;;;;;;-0.26;76.98;100009.38;5086621;28;19928;-64
2022/10/25 02:43:30;;;;;;;;;;;;;;;-0.24;76.92;100010.84;5084859;28;19955;-66
2022/10/25 02:45:56;;;;;;;;;;;;;;;-0.27;76.71;100013.94;5083635;28;19928;-65
2022/10/25 02:48:22;;;;;;;;;;;;;;;-0.25;76.87;100019.94;5083524;28;20009;-64
2022/10/25 02:50:47;;;;;;;;;;;;;;;-0.27;76.70;100013.94;5087812;28;19928;-65
2022/10/25 02:53:14;;;;;;;;;;;;;;;-0.25;76.92;100016.41;5088672;28;20355;-65
2022/10/25 02:55:40;;;;;;;;;;;;;;;-0.33;76.71;100018.22;5088674;28;19955;-64
2022/10/25 02:58:06;;;;;;;;;;;;;;;-0.36;76.89;100024.00;5088279;28;19928;-65
2022/10/25 03:00:31;;;;;;;;;;;;;;;-0.38;77.14;100019.84;5089021;28;20057;-64
2022/10/25 03:02:57;;;;;;;;;;;;;;;-0.41;76.98;100021.06;5088738;28;19927;-64
2022/10/25 03:05:23;;;;;;;;;;;;;;;-0.40;77.21;100021.91;5089334;28;19951;-64
2022/10/25 03:07:49;;;;;;;;;;;;;;;-0.43;77.34;100015.06;5090612;28;20379;-64
2022/10/25 03:10:16;;;;;;;;;;;;;;;-0.44;77.35;100021.47;5089604;28;19928;-65
2022/10/25 03:12:41;;;;;;;;;;;;;;;-0.47;77.57;100011.13;5088422;28;19985;-64
2022/10/25 03:15:08;;;;;;;;;;;;;;;-0.49;77.99;100018.53;5089184;28;19928;-64
2022/10/25 03:17:33;;;;;;;;;;;;;;;-0.54;77.95;100008.38;5088367;28;19928;-65
2022/10/25 03:19:59;;;;;;;;;;;;;;;-0.58;78.47;100013.31;5087595;28;19939;-64
2022/10/25 03:22:25;;;;;;;;;;;;;;;-0.61;78.68;100011.03;5086987;28;20296;-64
2022/10/25 03:24:50;;;;;;;;;;;;;;;-0.62;79.02;100008.56;5087739;28;19971;-64
2022/10/25 03:27:17;;;;;;;;;;;;;;;-0.73;79.21;99994.63;5083325;28;19928;-64
2022/10/25 03:29:43;;;;;;;;;;;;;;;-0.60;79.43;100010.00;5088334;28;19970;-64
2022/10/25 03:32:09;;;;;;;;;;;;;;;-0.55;79.37;100014.78;5088290;28;20403;-64
2022/10/25 03:34:34;;;;;;;;;;;;;;;-0.55;79.54;100013.94;5090207;28;20072;-64
2022/10/25 03:37:00;;;;;;;;;;;;;;;-0.60;79.65;100014.56;5086361;28;19928;-64
2022/10/25 03:39:26;;;;;;;;;;;;;;;-0.63;79.82;100017.59;5085811;28;19950;-64
2022/10/25 03:41:52;;;;;;;;;;;;;;;-0.62;79.85;100016.59;5086856;28;19990;-67
2022/10/25 03:44:19;;;;;;;;;;;;;;;-0.62;79.96;100017.41;5087125;28;19932;-64
2022/10/25 03:46:45;;;;;;;;;;;;;;;-0.66;80.04;100026.91;5088473;28;19989;-64
2022/10/25 03:49:10;;;;;;;;;;;;;;;-0.67;80.23;100024.41;5088844;28;20387;-64
2022/10/25 03:51:36;;;;;;;;;;;;;;;-0.66;80.29;100031.44;5085168;28;19971;-64
2022/10/25 03:54:01;;;;;;;;;;;;;;;-0.65;80.14;100027.72;5088373;28;19942;-64
2022/10/25 03:56:27;;;;;;;;;;;;;;;-0.71;80.34;100023.94;5087136;28;20429;-64
2022/10/25 03:58:53;;;;;;;;;;;;;;;-0.73;80.52;100034.06;5087939;28;19938;-64
2022/10/25 04:01:20;;;;;;;;;;;;;;;-0.74;80.61;100025.19;5087642;28;19958;-65
2022/10/25 04:03:46;;;;;;;;;;;;;;;-0.74;80.43;100029.72;5084928;28;19932;-64
2022/10/25 04:06:11;;;;;;;;;;;;;;;-0.76;80.50;100026.41;5087696;28;20284;-64
2022/10/25 04:08:37;;;;;;;;;;;;;;;-0.78;80.83;100029.31;5088960;28;19928;-64
2022/10/25 04:11:03;;;;;;;;;;;;;;;-0.73;80.82;100034.91;5092445;28;19934;-64
2022/10/25 04:13:28;;;;;;;;;;;;;;;-0.72;80.92;100030.34;5093662;28;19934;-64
2022/10/25 04:15:54;;;;;;;;;;;;;;;-0.74;80.95;100033.25;5084860;28;20450;-65
2022/10/25 04:18:22;;;;;;;;;;;;;;;-0.73;80.81;100029.53;5083582;28;20275;-65
2022/10/25 04:20:47;;;;;;;;;;;;;;;-0.73;80.90;100026.00;5089321;28;19932;-66
2022/10/25 04:23:13;;;;;;;;;;;;;;;-0.73;80.81;100031.38;5088191;28;20444;-66
2022/10/25 04:25:39;;;;;;;;;;;;;;;-0.74;80.75;100027.03;5086624;28;19975;-66
2022/10/25 04:28:05;;;;;;;;;;;;;;;-0.76;80.83;100029.94;5087169;28;19935;-65
2022/10/25 04:30:31;;;;;;;;;;;;;;;-0.78;81.09;100023.94;5087015;28;19928;-65
2022/10/25 04:32:57;;;;;;;;;;;;;;;-0.76;81.07;100029.94;5086740;28;19932;-65
2022/10/25 04:35:24;;;;;;;;;;;;;;;-0.74;81.39;100030.56;5094857;28;19927;-65
2022/10/25 04:37:50;;;;;;;;;;;;;;;-0.69;81.03;100026.44;5106426;28;20026;-64
2022/10/25 04:40:16;;;;;;;;;;;;;;;-0.66;81.06;100032.28;5105023;28;20429;-64
2022/10/25 04:42:42;;;;;;;;;;;;;;;-0.60;81.04;100034.16;5106400;28;19955;-64
2022/10/25 04:45:08;;;;;;;;;;;;;;;-0.57;80.92;100024.91;5106298;28;20398;-65
2022/10/25 04:47:34;;;;;;;;;;;;;;;-0.53;80.77;100015.41;5082515;28;19943;-65
2022/10/25 04:50:00;;;;;;;;;;;;;;;-0.48;80.80;100023.69;5108322;28;19939;-65
2022/10/25 04:52:29;;;;;;;;;;;;;;;-0.43;80.64;100018.59;5089176;28;19928;-65
2022/10/25 04:54:54;;;;;;;;;;;;;;;-0.39;80.53;100019.03;5104770;28;19927;-65
2022/10/25 04:57:20;;;;;;;;;;;;;;;-0.33;80.20;100023.59;5104360;28;19989;-65
2022/10/25 04:59:46;;;;;;;;;;;;;;;-0.26;79.85;100022.81;4748159;27;9999657;-66
2022/10/25 05:02:11;;;;;;;;;;;;;;;-0.21;80.00;100015.81;5095538;28;19927;-66
2022/10/25 05:04:37;;;;;;;;;;;;;;;-0.11;79.70;100026.19;5100583;28;19927;-65
2022/10/25 05:07:03;;;;;;;;;;;;;;;-0.04;79.44;100024.38;5099915;28;19927;-66
2022/10/25 05:09:30;;;;;;;;;;;;;;;0.05;79.21;100035.81;5100996;28;20653;-65
2022/10/25 05:11:56;;;;;;;;;;;;;;;0.11;78.96;100034.19;5099058;28;19928;-66
2022/10/25 05:14:21;;;;;;;;;;;;;;;0.13;78.70;100032.94;5096915;28;19934;-65
2022/10/25 05:16:47;;;;;;;;;;;;;;;0.22;78.43;100035.47;5097592;28;20558;-64
2022/10/25 05:19:13;;;;;;;;;;;;;;;0.30;77.98;100047.91;5098322;28;19950;-65
2022/10/25 05:21:39;;;;;;;;;;;;;;;0.30;77.67;100046.03;5081625;28;19928;-65
2022/10/25 05:24:04;;;;;;;;;;;;;;;0.30;77.57;100051.41;5101045;27;19955;-65
2022/10/25 05:26:32;;;;;;;;;;;;;;;0.35;77.22;100054.34;5091148;28;20308;-64
2022/10/25 05:28:57;;;;;;;;;;;;;;;0.46;77.02;100052.09;5093338;28;19961;-64
2022/10/25 05:31:24;;;;;;;;;;;;;;;0.51;76.80;100057.72;5098464;28;20306;-64
2022/10/25 05:33:50;;;;;;;;;;;;;;;0.52;76.59;100051.31;5094379;28;19955;-64
2022/10/25 05:36:16;;;;;;;;;;;;;;;0.54;76.75;100055.44;5087983;28;20026;-64
2022/10/25 05:38:42;;;;;;;;;;;;;;;0.55;76.70;100057.13;5095830;28;20023;-65
2022/10/25 05:41:09;;;;;;;;;;;;;;;0.63;76.69;100057.94;5070060;28;19928;-65
2022/10/25 05:43:36;;;;;;;;;;;;;;;0.68;76.49;100060.84;5088918;28;20309;-64
2022/10/25 05:46:04;;;;;;;;;;;;;;;0.73;76.45;100066.47;5066252;28;20528;-64
2022/10/25 05:48:31;;;;;;;;;;;;;;;0.79;76.49;100072.91;5086850;28;20422;-65
2022/10/25 05:51:06;;;;;;;;;;;;;;;0.85;76.57;100062.13;5091035;28;19974;-65
2022/10/25 05:53:32;;;;;;;;;;;;;;;0.91;76.33;100063.19;5104676;28;19928;-65
2022/10/25 05:55:58;;;;;;;;;;;;;;;0.97;76.22;100057.00;5089249;28;20452;-65
2022/10/25 05:58:24;;;;;;;;;;;;;;;1.04;75.87;100056.16;5095473;28;19981;-66
2022/10/25 06:00:51;;;;;;;;;;;;;;;1.08;75.59;100058.25;5093578;28;19940;-65
2022/10/25 06:03:17;;;;;;;;;;;;;;;1.18;75.72;100062.41;5089972;28;19971;-65
2022/10/25 06:05:42;;;;;;;;;;;;;;;1.24;75.29;100061.56;5106677;28;19970;-67
2022/10/25 06:08:08;;;;;;;;;;;;;;;1.29;74.76;100066.34;5108166;28;19928;-66
2022/10/25 06:10:34;;;;;;;;;;;;;;;1.37;74.61;100056.19;5108835;28;19927;-66
2022/10/25 06:13:00;;;;;;;;;;;;;;;1.46;74.41;100064.03;5090518;28;19928;-65
2022/10/25 06:15:26;;;;;;;;;;;;;;;1.49;74.24;100060.97;5080969;28;19928;-65
2022/10/25 06:17:53;;;;;;;;;;;;;;;1.52;73.64;100058.66;5083633;28;19962;-65
2022/10/25 06:20:19;;;;;;;;;;;;;;;1.59;73.53;100060.53;5092691;28;19931;-64
2022/10/25 06:22:44;;;;;;;;;;;;;;;1.65;73.34;100059.69;5099961;28;19989;-66
2022/10/25 06:25:10;;;;;;;;;;;;;;;1.71;72.84;100058.84;5101316;28;19938;-65
2022/10/25 06:27:36;;;;;;;;;;;;;;;1.76;72.50;100056.34;5111621;28;20302;-65
2022/10/25 06:30:02;;;;;;;;;;;;;;;1.77;72.24;100055.31;5098346;28;19985;-65
2022/10/25 06:32:28;;;;;;;;;;;;;;;1.83;72.31;100056.34;5101838;28;20470;-65
2022/10/25 06:34:55;;;;;;;;;;;;;;;1.91;71.95;100056.09;5098346;28;20014;-64
2022/10/25 06:37:21;;;;;;;;;;;;;;;1.91;71.75;100055.28;5110358;28;19981;-65
2022/10/25 06:39:47;;;;;;;;;;;;;;;1.97;71.51;100059.81;5109101;28;19928;-67
2022/10/25 06:42:12;;;;;;;;;;;;;;;2.05;71.38;100058.78;5108194;28;19934;-65
2022/10/25 06:44:39;;;;;;;;;;;;;;;2.12;71.28;100063.09;5107664;28;20023;-64
2022/10/25 06:47:05;;;;;;;;;;;;;;;2.18;71.72;100069.53;5103632;28;20018;-64
2022/10/25 06:49:31;;;;;;;;;;;;;;;2.24;71.79;100070.53;5108278;28;20031;-65
2022/10/25 06:51:58;;;;;;;;;;;;;;;2.26;71.93;100069.31;5104707;28;19962;-68
2022/10/25 06:54:25;;;;;;;;;;;;;;;2.32;71.87;100075.69;5083898;28;19986;-65
2022/10/25 06:56:51;;;;;;;;;;;;;;;2.40;71.89;100083.56;5107514;28;19973;-65
2022/10/25 06:59:18;;;;;;;;;;;;;;;2.49;71.63;100083.31;5111217;28;19928;-64
2022/10/25 07:01:43;;;;;;;;;;;;;;;2.65;71.28;100084.69;5107288;28;20450;-64
2022/10/25 07:04:09;;;;;;;;;;;;;;;2.96;70.41;100092.00;5103292;28;19959;-65
2022/10/25 07:06:36;;;;;;;;;;;;;;;3.48;68.42;100087.47;5100584;28;19956;-64
2022/10/25 07:09:04;;;;;;;;;;;;;;;4.14;65.78;100081.66;5096194;28;20307;-66
2022/10/25 07:11:31;;;;;;;;;;;;;;;4.77;63.36;100090.47;5103244;28;20314;-65
2022/10/25 07:13:57;;;;;;;;;;;;;;;5.34;60.93;100084.63;5086198;28;19934;-65
2022/10/25 07:16:23;;;;;;;;;;;;;;;5.78;59.38;100081.63;5105848;28;20025;-65
2022/10/25 07:18:49;;;;;;;;;;;;;;;6.16;57.93;100081.38;5102262;28;20352;-65
2022/10/25 07:21:15;;;;;;;;;;;;;;;6.43;56.59;100080.84;5107521;28;19953;-65
2022/10/25 07:23:41;;;;;;;;;;;;;;;6.78;55.20;100093.50;5107432;28;20376;-67
2022/10/25 07:26:10;;;;;;;;;;;;;;;7.18;53.95;100087.19;5086435;28;19928;-67
2022/10/25 07:28:36;;;;;;;;;;;;;;;7.35;52.65;100091.81;5106863;28;20352;-67
2022/10/25 07:31:01;;;;;;;;;;;;;;;7.55;52.39;100085.03;5107440;28;19928;-67
2022/10/25 07:33:28;;;;;;;;;;;;;;;7.93;50.97;100087.00;5107924;28;19934;-65
2022/10/25 07:35:54;;;;;;;;;;;;;;;8.32;50.03;100083.44;5100586;28;20022;-67
2022/10/25 07:38:20;;;;;;;;;;;;;;;8.68;48.49;100090.41;5105077;28;20031;-67
2022/10/25 07:40:45;;;;;;;;;;;;;;;8.63;48.47;100086.56;5087414;28;20406;-68
2022/10/25 07:43:13;;;;;;;;;;;;;;;8.74;48.22;100086.66;5105442;28;19928;-67
2022/10/25 07:45:38;;;;;;;;;;;;;;;8.99;46.82;100093.47;5105169;28;20431;-67
2022/10/25 07:48:04;;;;;;;;;;;;;;;9.08;46.43;100091.94;5107949;28;19928;-67
2022/10/25 07:50:30;;;;;;;;;;;;;;;9.25;46.11;100088.28;5110087;28;19931;-67
2022/10/25 07:52:57;;;;;;;;;;;;;;;9.46;45.78;100087.38;5110372;28;19938;-67
2022/10/25 07:55:23;;;;;;;;;;;;;;;9.68;44.69;100091.91;5107376;28;20310;-67
2022/10/25 07:57:49;;;;;;;;;;;;;;;9.83;44.60;100091.19;5101633;28;19934;-67
2022/10/25 08:00:16;;;;;;;;;;;;;;;10.00;43.88;100088.31;5102994;28;19932;-67
2022/10/25 08:02:42;;;;;;;;;;;;;;;9.98;43.34;100086.91;5106357;28;19928;-67
2022/10/25 08:05:08;;;;;;;;;;;;;;;10.30;42.89;100088.72;5101197;28;20425;-67
2022/10/25 08:07:34;;;;;;;;;;;;;;;10.48;41.57;100098.41;5107497;28;19934;-68
2022/10/25 08:10:00;;;;;;;;;;;;;;;10.46;41.27;100101.41;5089551;28;20496;-67
2022/10/25 08:12:25;;;;;;;;;;;;;;;10.44;41.08;100095.38;5110234;28;19939;-67
2022/10/25 08:14:51;;;;;;;;;;;;;;;10.74;40.83;100093.88;5107132;28;19950;-67
2022/10/25 08:17:18;;;;;;;;;;;;;;;11.05;39.80;100093.94;5107008;28;19928;-67
2022/10/25 08:19:44;;;;;;;;;;;;;;;11.58;38.81;100094.81;5106967;28;19932;-67
2022/10/25 08:22:13;;;;;;;;;;;;;;;11.92;38.23;100081.31;5108645;28;19981;-65
2022/10/25 08:24:40;;;;;;;;;;;;;;;12.14;37.44;100090.34;5094433;28;20430;-66
2022/10/25 08:27:06;;;;;;;;;;;;;;;12.61;37.08;100094.56;5104306;28;19967;-65
2022/10/25 08:29:31;;;;;;;;;;;;;;;12.94;36.06;100091.41;5104809;28;19934;-65
2022/10/25 08:31:58;;;;;;;;;;;;;;;13.42;34.60;100089.97;5097895;28;19928;-65
2022/10/25 08:34:25;;;;;;;;;;;;;;;13.50;34.32;100088.56;5107707;28;19928;-65
2022/10/25 08:36:51;;;;;;;;;;;;;;;13.73;33.50;100101.53;5093998;28;19928;-68
2022/10/25 08:39:16;;;;;;;;;;;;;;;13.64;33.79;100100.53;5106268;28;19932;-67
2022/10/25 08:41:47;;;;;;;;;;;;;;;13.45;32.89;100098.50;5098647;28;19967;-65
2022/10/25 08:44:20;;;;;;;;;;;;;;;13.15;33.62;100103.06;5106168;28;20353;-65
2022/10/25 08:46:52;;;;;;;;;;;;;;;13.33;33.38;100096.06;5105484;28;19928;-66
2022/10/25 08:49:20;;;;;;;;;;;;;;;13.42;33.15;100096.28;5109430;28;20016;-67
2022/10/25 08:51:49;;;;;;;;;;;;;;;13.85;32.78;100086.59;5105642;28;20311;-67
2022/10/25 08:54:24;;;;;;;;;;;;;;;14.33;31.55;100099.56;5106851;28;19932;-67
2022/10/25 08:56:52;;;;;;;;;;;;;;;13.83;31.90;100097.91;5105578;28;19931;-67
2022/10/25 08:59:24;;;;;;;;;;;;;;;14.00;32.18;100096.63;5102341;28;19971;-67
2022/10/25 09:01:53;;;;;;;;;;;;;;;14.49;31.61;100091.13;5107750;28;19932;-67
2022/10/25 09:04:20;;;;;;;;;;;;;;;14.77;31.49;100092.19;5106046;28;19981;-65
2022/10/25 09:06:53;;;;;;;;;;;;;;;15.15;30.80;100094.97;5088880;28;20374;-70
2022/10/25 09:09:26;;;;;;;;;;;;;;;15.56;29.44;100092.66;5108700;28;20485;-66
2022/10/25 09:12:04;;;;;;;;;;;;;;;15.51;29.29;100092.75;5103226;28;19966;-68
2022/10/25 09:14:35;;;;;;;;;;;;;;;15.13;30.06;100094.41;5106515;28;19935;-67
2022/10/25 09:17:06;;;;;;;;;;;;;;;15.09;30.08;100078.81;5109065;28;19927;-67
2022/10/25 09:19:33;;;;;;;;;;;;;;;15.30;29.98;100085.63;5105602;28;19928;-67
2022/10/25 09:22:01;;;;;;;;;;;;;;;15.53;28.59;100085.00;5097769;28;20557;-68
2022/10/25 09:24:27;;;;;;;;;;;;;;;15.24;29.33;100086.84;5106488;28;19996;-68
2022/10/25 09:26:59;;;;;;;;;;;;;;;15.86;28.92;100085.81;5082299;28;19934;-67
2022/10/25 09:29:28;;;;;;;;;;;;;;;15.94;28.27;100087.06;5100931;28;20427;-67
2022/10/25 09:31:55;;;;;;;;;;;;;;;15.56;28.97;100092.66;5106132;28;19928;-67
2022/10/25 09:34:22;;;;;;;;;;;;;;;16.01;28.21;100090.22;5072983;28;20493;-67
2022/10/25 09:36:53;;;;;;;;;;;;;;;16.06;28.21;100085.75;5096989;28;20212;-67
2022/10/25 09:39:22;;;;;;;;;;;;;;;16.44;27.90;100083.59;5107497;28;20018;-67
2022/10/25 09:41:49;;;;;;;;;;;;;;;16.96;27.12;100084.44;5106025;28;20026;-67
2022/10/25 09:44:18;;;;;;;;;;;;;;;17.05;26.73;100081.78;5104677;28;19949;-67
2022/10/25 09:46:47;;;;;;;;;;;;;;;16.64;27.18;100087.09;5100652;28;19970;-67
2022/10/25 09:49:19;;;;;;;;;;;;;;;16.61;27.31;100090.44;5101392;28;20023;-67
2022/10/25 09:51:49;;;;;;;;;;;;;;;16.54;27.37;100092.81;5104679;28;19927;-67
2022/10/25 09:54:18;;;;;;;;;;;;;;;15.90;27.62;100090.72;5107629;28;19927;-67
2022/10/25 09:56:45;;;;;;;;;;;;;;;15.62;27.97;100085.94;5106649;28;19977;-67
2022/10/25 09:59:12;;;;;;;;;;;;;;;15.37;28.41;100090.75;5095703;28;19939;-67
2022/10/25 10:01:38;;;;;;;;;;;;;;;14.97;28.43;100080.06;5102316;28;19928;-67
2022/10/25 10:04:11;;;;;;;;;;;;;;;14.80;29.17;100083.31;5103846;28;19928;-67
2022/10/25 10:06:38;;;;;;;;;;;;;;;14.82;28.81;100081.09;5105779;28;19979;-68
2022/10/25 10:09:05;;;;;;;;;;;;;;;14.29;29.31;100076.53;5099475;28;19972;-67
2022/10/25 10:11:33;;;;;;;;;;;;;;;13.76;30.59;100091.91;5081148;28;19932;-66
2022/10/25 10:14:04;;;;;;;;;;;;;;;13.77;29.90;100087.25;5106221;28;19949;-65
2022/10/25 10:16:31;;;;;;;;;;;;;;;13.16;30.06;100079.16;5102475;28;19927;-67
2022/10/25 10:19:12;;;;;;;;;;;;;;;12.77;30.74;100086.25;5103473;28;19928;-67
2022/10/25 10:21:41;;;;;;;;;;;;;;;12.19;31.71;100085.69;5103573;28;19939;-67
2022/10/25 10:24:15;;;;;;;;;;;;;;;11.81;32.62;100082.47;5098925;28;19928;-67
2022/10/25 10:26:43;;;;;;;;;;;;;;;11.67;32.75;100073.16;5095897;28;20450;-67
2022/10/25 10:29:12;;;;;;;;;;;;;;;11.64;32.87;100074.53;5102864;28;19934;-67
2022/10/25 10:31:39;;;;;;;;;;;;;;;11.35;33.18;100069.59;5098280;28;19927;-67
2022/10/25 10:34:07;;;;;;;;;;;;;;;11.26;33.38;100069.31;5100866;28;20427;-67
2022/10/25 10:36:34;;;;;;;;;;;;;;;10.83;33.87;100068.72;5102385;28;19927;-67
2022/10/25 10:39:17;;;;;;;;;;;;;;;10.86;33.73;100073.66;5102261;28;19988;-67
2022/10/25 10:41:52;;;;;;;;;;;;;;;10.91;33.45;100077.19;5106039;28;19931;-67
2022/10/25 10:44:19;;;;;;;;;;;;;;;10.78;33.47;100073.06;5105456;28;19966;-67
2022/10/25 10:46:46;;;;;;;;;;;;;;;10.78;33.21;100070.34;5100481;28;20417;-67
2022/10/25 10:49:13;;;;;;;;;;;;;;;10.81;33.34;100085.41;5105977;28;20348;-65
2022/10/25 10:51:41;;;;;;;;;;;;;;;10.90;33.21;100072.81;5102763;28;19928;-67
2022/10/25 10:54:20;;;;;;;;;;;;;;;11.20;33.05;100076.69;5098492;28;19928;-67
2022/10/25 10:56:51;;;;;;;;;;;;;;;11.52;32.59;100077.56;5093368;28;19928;-66
2022/10/25 10:59:27;;;;;;;;;;;;;;;11.74;32.19;100077.25;5095499;28;19935;-67
2022/10/25 11:01:53;;;;;;;;;;;;;;;11.90;32.20;100069.81;5097412;28;20287;-67
2022/10/25 11:04:18;;;;;;;;;;;;;;;12.08;32.15;100081.31;5095710;28;19935;-67
2022/10/25 11:06:44;;;;;;;;;;;;;;;12.30;31.55;100074.69;5105968;28;19938;-65
2022/10/25 11:09:14;;;;;;;;;;;;;;;12.63;31.45;100077.84;5098598;28;19927;-65
2022/10/25 11:11:40;;;;;;;;;;;;;;;13.01;30.66;100078.16;5098074;28;19957;-64
2022/10/25 11:14:08;;;;;;;;;;;;;;;13.63;30.23;100076.09;5102390;28;20330;-65
2022/10/25 11:16:42;;;;;;;;;;;;;;;14.14;29.13;100077.50;5098943;28;19953;-65
2022/10/25 11:19:29;;;;;;;;;;;;;;;14.70;28.86;100077.94;5104260;28;19963;-65
2022/10/25 11:22:05;;;;;;;;;;;;;;;15.36;28.21;100074.50;5076301;28;19927;-65
2022/10/25 11:24:35;;;;;;;;;;;;;;;15.94;27.39;100076.03;5096704;28;19932;-65
2022/10/25 11:27:06;;;;;;;;;;;;;;;16.34;26.23;100071.97;4751016;28;10000053;-65
2022/10/25 11:29:42;;;;;;;;;;;;;;;16.73;26.01;100071.41;5104591;28;19951;-65
2022/10/25 11:32:19;;;;;;;;;;;;;;;17.20;25.11;100072.34;5108336;28;19927;-67
2022/10/25 11:34:48;;;;;;;;;;;;;;;17.56;25.10;100071.44;5099108;28;19928;-67
2022/10/25 11:37:18;;;;;;;;;;;;;;;17.97;24.53;100072.31;5097966;28;19997;-67
2022/10/25 11:39:47;;;;;;;;;;;;;;;18.37;24.26;100071.53;5094088;28;19939;-67
2022/10/25 11:42:22;;;;;;;;;;;;;;;18.65;23.50;100068.50;5098530;28;19977;-67
2022/10/25 11:45:04;;;;;;;;;;;;;;;18.95;23.43;100077.00;5093992;28;19978;-67
2022/10/25 11:47:36;;;;;;;;;;;;;;;19.37;23.08;100069.06;5099332;28;19928;-66
2022/10/25 11:50:13;;;;;;;;;;;;;;;19.82;22.37;100067.81;5099893;28;19938;-66
2022/10/25 11:52:59;;;;;;;;;;;;;;;19.90;21.88;100077.25;5096977;28;19932;-67
2022/10/25 11:55:31;;;;;;;;;;;;;;;20.02;21.77;100071.03;5099311;28;20026;-66
2022/10/25 11:58:02;;;;;;;;;;;;;;;20.10;21.90;100066.59;5078068;28;19981;-65
2022/10/25 12:00:33;;;;;;;;;;;;;;;20.12;21.88;100069.84;5095791;28;19969;-65
2022/10/25 12:03:08;;;;;;;;;;;;;;;19.77;21.82;100061.63;5098729;27;19934;-66
2022/10/25 12:05:38;;;;;;;;;;;;;;;19.51;21.73;100070.81;5097369;28;20355;-65
2022/10/25 12:08:09;;;;;;;;;;;;;;;19.48;21.95;100072.28;5104223;28;19934;-64
2022/10/25 12:10:38;;;;;;;;;;;;;;;19.50;22.00;100072.78;5107141;28;19931;-65
2022/10/25 12:13:10;;;;;;;;;;;;;;;19.47;21.96;100067.06;5088286;28;20026;-65
2022/10/25 12:15:38;;;;;;;;;;;;;;;19.30;22.03;100077.03;5107518;28;19974;-64
2022/10/25 12:18:14;;;;;;;;;;;;;;;19.22;22.33;100070.34;5106569;28;20043;-65
2022/10/25 12:20:42;;;;;;;;;;;;;;;19.49;22.60;100064.78;5097581;28;19928;-66
2022/10/25 12:23:12;;;;;;;;;;;;;;;19.61;22.18;100062.16;5099700;28;19927;-67
2022/10/25 12:25:40;;;;;;;;;;;;;;;19.64;22.17;100066.22;5100337;28;20022;-67
2022/10/25 12:28:12;;;;;;;;;;;;;;;19.68;22.01;100072.75;5102112;28;19928;-67
2022/10/25 12:30:38;;;;;;;;;;;;;;;19.38;22.46;100064.31;5100356;28;20417;-65
2022/10/25 12:33:13;;;;;;;;;;;;;;;18.48;23.46;100074.81;5101843;28;19934;-65
2022/10/25 12:35:43;;;;;;;;;;;;;;;17.90;23.45;100034.06;5097137;28;19935;-64
2022/10/25 12:38:11;;;;;;;;;;;;;;;17.73;23.84;100067.97;5103164;28;19934;-65
2022/10/25 12:40:40;;;;;;;;;;;;;;;17.68;23.98;100076.38;5084875;28;19932;-64
2022/10/25 12:43:12;;;;;;;;;;;;;;;17.55;23.70;100070.63;5080179;28;20395;-67
2022/10/25 12:45:47;;;;;;;;;;;;;;;17.50;24.12;100062.47;5103259;28;19927;-66
2022/10/25 12:48:22;;;;;;;;;;;;;;;17.50;24.15;100064.44;5104436;28;19928;-65